createdAt,value
2022-10-13T00:01:11.391Z,9.29
2022-10-13T00:03:40.450Z,9.17
2022-10-13T00:06:09.890Z,9.26
2022-10-13T00:08:38.638Z,9.26
2022-10-13T00:11:32.486Z,9.36
2022-10-13T00:14:02.543Z,9.28
2022-10-13T00:16:32.476Z,9.24
2022-10-13T00:19:00.095Z,9.36
2022-10-13T00:21:28.625Z,9.33
2022-10-13T00:23:56.951Z,9.32
2022-10-13T00:26:25.704Z,9.33
2022-10-13T00:28:54.712Z,9.23
2022-10-13T00:31:25.252Z,9.25
2022-10-13T00:33:53.146Z,9.27
2022-10-13T00:36:23.329Z,9.14
2022-10-13T00:38:51.660Z,9.16
2022-10-13T00:41:20.241Z,9.11
2022-10-13T00:43:47.659Z,9.06
2022-10-13T00:46:16.077Z,8.95
2022-10-13T00:48:47.342Z,8.97
2022-10-13T00:51:17.656Z,8.90
2022-10-13T00:53:48.045Z,8.84
2022-10-13T00:56:18.403Z,8.81
2022-10-13T00:58:47.729Z,8.82
2022-10-13T01:01:15.542Z,8.76
2022-10-13T01:03:43.132Z,8.73
2022-10-13T01:06:12.789Z,8.71
2022-10-13T01:08:40.311Z,8.72
2022-10-13T01:11:23.157Z,8.68
2022-10-13T01:14:13.670Z,8.58
2022-10-13T01:17:22.690Z,8.58
2022-10-13T01:19:56.458Z,8.43
2022-10-13T01:22:35.719Z,8.34
2022-10-13T01:25:31.033Z,8.27
2022-10-13T01:28:04.355Z,8.17
2022-10-13T01:30:46.077Z,8.14
2022-10-13T01:33:19.437Z,8.23
2022-10-13T01:36:10.072Z,8.23
2022-10-13T01:39:04.244Z,8.30
2022-10-13T01:42:46.531Z,8.34
2022-10-13T01:50:35.440Z,8.39
2022-10-13T01:53:40.130Z,8.39
2022-10-13T01:56:35.524Z,8.43
2022-10-13T01:59:47.440Z,8.50
2022-10-13T02:07:11.838Z,8.62
2022-10-13T02:10:00.090Z,8.50
2022-10-13T02:13:04.396Z,8.47
2022-10-13T02:16:15.432Z,8.60
2022-10-13T02:30:41.691Z,8.56
2022-10-13T02:33:09.923Z,8.45
2022-10-13T02:35:40.831Z,8.39
2022-10-13T02:38:08.839Z,8.40
2022-10-13T02:40:36.537Z,8.35
2022-10-13T02:43:04.552Z,8.28
2022-10-13T02:45:32.190Z,8.29
2022-10-13T02:47:59.689Z,8.25
2022-10-13T02:50:27.346Z,8.29
2022-10-13T02:52:57.294Z,8.24
2022-10-13T02:55:24.974Z,8.21
2022-10-13T02:57:59.603Z,8.14
2022-10-13T03:00:27.223Z,8.15
2022-10-13T03:02:54.682Z,8.11
2022-10-13T03:05:22.420Z,8.07
2022-10-13T03:07:50.066Z,7.98
2022-10-13T03:10:17.681Z,7.73
2022-10-13T03:12:47.356Z,7.92
2022-10-13T03:15:14.920Z,7.84
2022-10-13T03:17:42.682Z,7.80
2022-10-13T03:20:10.497Z,7.76
2022-10-13T03:22:37.922Z,7.57
2022-10-13T03:25:06.027Z,7.53
2022-10-13T03:27:34.424Z,7.64
2022-10-13T03:30:02.366Z,7.68
2022-10-13T03:32:31.870Z,7.68
2022-10-13T03:34:59.351Z,7.75
2022-10-13T03:37:30.677Z,7.70
2022-10-13T03:39:58.174Z,7.68
2022-10-13T03:42:25.634Z,7.80
2022-10-13T03:44:56.266Z,7.79
2022-10-13T03:47:24.298Z,7.82
2022-10-13T03:49:54.318Z,7.82
2022-10-13T03:52:22.844Z,7.77
2022-10-13T03:54:50.439Z,7.77
2022-10-13T03:57:17.897Z,7.77
2022-10-13T03:59:45.666Z,7.83
2022-10-13T04:02:13.230Z,7.76
2022-10-13T04:04:40.873Z,7.84
2022-10-13T04:07:08.759Z,7.77
2022-10-13T04:09:38.797Z,7.83
2022-10-13T04:12:06.374Z,7.88
2022-10-13T04:14:33.963Z,7.88
2022-10-13T04:17:09.001Z,7.83
2022-10-13T04:19:36.492Z,7.85
2022-10-13T04:22:06.416Z,7.89
2022-10-13T04:24:34.808Z,7.88
2022-10-13T04:27:02.286Z,7.90
2022-10-13T04:29:29.760Z,7.93
2022-10-13T04:32:00.299Z,8.04
2022-10-13T04:34:27.886Z,8.03
2022-10-13T04:37:35.363Z,8.16
2022-10-13T04:40:03.867Z,8.13
2022-10-13T04:42:56.031Z,8.19
2022-10-13T04:45:23.671Z,8.05
2022-10-13T04:47:51.071Z,8.06
2022-10-13T04:50:22.922Z,8.04
2022-10-13T04:53:08.176Z,8.11
2022-10-13T04:55:37.312Z,8.15
2022-10-13T04:58:04.738Z,8.15
2022-10-13T05:12:37.813Z,8.37
2022-10-13T05:15:05.723Z,8.37
2022-10-13T05:17:35.503Z,8.32
2022-10-13T05:20:10.164Z,8.36
2022-10-13T05:22:37.728Z,8.37
2022-10-13T05:25:05.503Z,8.30
2022-10-13T05:27:32.946Z,8.42
2022-10-13T05:30:03.758Z,8.41
2022-10-13T05:32:31.897Z,8.54
2022-10-13T05:35:14.451Z,8.62
2022-10-13T05:38:26.300Z,8.73
2022-10-13T05:41:38.472Z,8.70
2022-10-13T05:44:48.692Z,8.78
2022-10-13T05:47:26.877Z,8.72
2022-10-13T05:50:15.443Z,8.84
2022-10-13T05:52:43.532Z,8.87
2022-10-13T05:55:32.338Z,8.98
2022-10-13T05:58:05.991Z,8.97
2022-10-13T06:00:33.531Z,9.07
2022-10-13T06:03:13.002Z,9.22
2022-10-13T06:05:47.593Z,9.21
2022-10-13T06:08:16.104Z,9.22
2022-10-13T06:15:43.807Z,9.25
2022-10-13T06:23:13.508Z,10.83
2022-10-13T06:26:25.275Z,11.17
2022-10-13T06:28:58.406Z,11.49
2022-10-13T06:31:46.283Z,11.98
2022-10-13T06:34:13.934Z,11.88
2022-10-13T06:36:44.932Z,11.83
2022-10-13T06:39:12.700Z,12.39
2022-10-13T06:42:23.531Z,12.60
2022-10-13T06:49:00.479Z,11.62
2022-10-13T06:51:28.947Z,11.34
2022-10-13T06:53:57.590Z,11.07
2022-10-13T06:56:26.679Z,10.90
2022-10-13T06:58:54.248Z,10.83
2022-10-13T07:01:22.063Z,10.72
2022-10-13T07:03:50.632Z,10.64
2022-10-13T07:06:22.020Z,10.45
2022-10-13T07:08:51.641Z,10.41
2022-10-13T07:11:20.369Z,10.43
2022-10-13T07:13:54.436Z,10.40
2022-10-13T07:16:22.235Z,10.41
2022-10-13T07:18:50.033Z,10.38
2022-10-13T07:21:17.941Z,10.43
2022-10-13T07:23:45.451Z,10.49
2022-10-13T07:26:15.184Z,10.53
2022-10-13T07:28:43.740Z,10.81
2022-10-13T07:31:14.617Z,11.13
2022-10-13T07:33:44.587Z,11.28
2022-10-13T07:36:13.034Z,11.44
2022-10-13T07:38:40.655Z,11.55
2022-10-13T07:41:10.243Z,11.72
2022-10-13T07:43:37.870Z,11.80
2022-10-13T07:46:06.701Z,11.90
2022-10-13T07:48:35.765Z,12.09
2022-10-13T07:51:06.142Z,12.22
2022-10-13T07:53:35.473Z,12.31
2022-10-13T07:56:09.555Z,12.31
2022-10-13T07:58:38.928Z,12.32
2022-10-13T08:01:07.284Z,12.42
2022-10-13T08:03:41.842Z,12.45
2022-10-13T08:06:18.091Z,13.05
2022-10-13T08:08:45.866Z,13.85
2022-10-13T08:11:17.834Z,14.53
2022-10-13T08:13:52.475Z,14.95
2022-10-13T08:16:23.351Z,14.74
2022-10-13T08:18:50.943Z,14.61
2022-10-13T08:24:11.449Z,15.24
2022-10-13T08:26:39.067Z,15.21
2022-10-13T08:29:21.221Z,14.85
2022-10-13T08:34:25.442Z,13.82
2022-10-13T08:36:56.340Z,13.31
2022-10-13T08:39:25.306Z,12.85
2022-10-13T08:41:54.426Z,12.48
2022-10-13T08:47:23.821Z,12.21
2022-10-13T08:49:53.515Z,12.12
2022-10-13T08:52:27.795Z,11.97
2022-10-13T08:54:56.546Z,11.92
2022-10-13T08:57:24.771Z,11.98
2022-10-13T08:59:52.696Z,12.12
2022-10-13T09:02:27.295Z,12.43
2022-10-13T09:04:57.484Z,12.64
2022-10-13T09:07:28.571Z,12.78
2022-10-13T09:09:56.479Z,12.94
2022-10-13T09:12:27.102Z,12.98
2022-10-13T09:15:01.532Z,13.23
2022-10-13T09:17:32.874Z,13.49
2022-10-13T09:20:27.762Z,14.12
2022-10-13T09:23:07.089Z,15.03
2022-10-13T09:25:43.346Z,15.64
2022-10-13T09:28:26.792Z,16.29
2022-10-13T09:31:26.001Z,17.06
2022-10-13T09:34:12.297Z,17.49
2022-10-13T09:36:40.163Z,17.14
2022-10-13T09:39:16.192Z,16.74
2022-10-13T09:41:45.344Z,16.41
2022-10-13T09:44:16.696Z,15.97
2022-10-13T09:46:55.461Z,15.52
2022-10-13T09:49:36.011Z,15.27
2022-10-13T09:52:19.646Z,14.93
2022-10-13T09:54:53.054Z,14.59
2022-10-13T09:57:45.160Z,14.50
2022-10-13T10:00:18.346Z,14.14
2022-10-13T10:03:19.384Z,14.03
2022-10-13T10:05:55.765Z,14.16
2022-10-13T10:09:02.155Z,15.57
2022-10-13T10:11:37.633Z,16.46
2022-10-13T10:14:20.183Z,17.55
2022-10-13T10:16:59.455Z,18.20
2022-10-13T10:19:38.331Z,19.17
2022-10-13T10:22:37.272Z,20.58
2022-10-13T10:25:22.863Z,21.90
2022-10-13T10:27:59.941Z,24.07
2022-10-13T10:30:29.794Z,25.83
2022-10-13T10:33:11.730Z,25.34
2022-10-13T10:35:47.986Z,26.22
2022-10-13T10:38:44.251Z,27.94
2022-10-13T10:41:38.903Z,28.69
2022-10-13T10:44:11.468Z,27.00
2022-10-13T10:46:49.843Z,26.11
2022-10-13T10:49:23.832Z,24.83
2022-10-13T10:51:52.337Z,23.46
2022-10-13T10:54:46.597Z,22.54
2022-10-13T10:57:51.420Z,21.65
2022-10-13T11:00:23.712Z,21.48
2022-10-13T11:03:09.172Z,24.01
2022-10-13T11:06:05.892Z,26.56
2022-10-13T11:08:42.732Z,26.93
2022-10-13T11:11:37.560Z,26.59
2022-10-13T11:14:09.153Z,25.15
2022-10-13T11:16:40.851Z,24.46
2022-10-13T11:19:29.021Z,25.33
2022-10-13T11:21:59.384Z,26.71
2022-10-13T11:24:41.916Z,28.29
2022-10-13T11:27:14.688Z,28.02
2022-10-13T11:29:49.204Z,28.66
2022-10-13T11:32:25.944Z,29.63
2022-10-13T11:35:02.467Z,30.11
2022-10-13T11:37:40.711Z,30.43
2022-10-13T11:40:08.226Z,30.78
2022-10-13T11:43:00.410Z,31.21
2022-10-13T11:46:02.219Z,31.38
2022-10-13T11:48:44.531Z,28.60
2022-10-13T11:51:26.380Z,27.78
2022-10-13T11:54:00.340Z,27.09
2022-10-13T11:56:48.285Z,27.96
2022-10-13T11:59:31.298Z,29.42
2022-10-13T12:02:12.296Z,30.09
2022-10-13T12:04:46.336Z,30.60
2022-10-13T12:07:16.083Z,30.83
2022-10-13T12:09:52.267Z,31.17
2022-10-13T12:12:23.869Z,31.37
2022-10-13T12:14:58.616Z,31.41
2022-10-13T12:17:35.443Z,31.76
2022-10-13T12:20:20.885Z,31.28
2022-10-13T12:22:49.323Z,27.80
2022-10-13T12:25:19.119Z,24.74
2022-10-13T12:27:55.906Z,22.16
2022-10-13T12:30:25.475Z,20.26
2022-10-13T12:32:55.831Z,18.79
2022-10-13T12:35:32.348Z,17.77
2022-10-13T12:38:19.310Z,17.01
2022-10-13T12:40:49.254Z,16.07
2022-10-13T12:43:20.241Z,15.46
2022-10-13T12:45:49.609Z,14.90
2022-10-13T12:48:35.451Z,14.80
2022-10-13T12:51:23.720Z,14.51
2022-10-13T12:53:51.532Z,14.01
2022-10-13T12:56:25.948Z,13.85
2022-10-13T13:24:51.215Z,12.71
2022-10-13T13:27:21.829Z,12.45
2022-10-13T13:29:49.732Z,12.17
2022-10-13T13:32:20.312Z,12.12
2022-10-13T13:34:49.148Z,11.95
2022-10-13T13:37:34.173Z,11.79
2022-10-13T13:40:02.095Z,11.56
2022-10-13T13:42:32.563Z,11.53
2022-10-13T13:45:00.227Z,11.49
2022-10-13T13:47:29.024Z,11.40
2022-10-13T13:49:57.393Z,11.29
2022-10-13T13:52:26.051Z,11.20
2022-10-13T13:54:53.765Z,11.08
2022-10-13T13:57:21.782Z,11.03
2022-10-13T13:59:49.589Z,10.93
2022-10-13T14:02:21.349Z,11.06
2022-10-13T14:04:49.269Z,11.16
2022-10-13T14:07:17.810Z,11.09
2022-10-13T14:09:48.187Z,11.06
2022-10-13T14:12:15.709Z,10.95
2022-10-13T14:14:43.123Z,10.71
2022-10-13T14:17:11.161Z,10.63
2022-10-13T14:19:38.599Z,10.41
2022-10-13T14:22:20.180Z,10.26
2022-10-13T14:24:47.947Z,10.11
2022-10-13T14:27:15.487Z,10.02
2022-10-13T14:29:43.045Z,9.98
2022-10-13T14:32:12.966Z,9.98
2022-10-13T14:34:40.466Z,9.90
2022-10-13T14:37:07.934Z,9.94
2022-10-13T14:39:35.389Z,9.79
2022-10-13T14:42:02.793Z,9.72
2022-10-13T14:44:30.287Z,9.61
2022-10-13T14:46:57.718Z,9.60
2022-10-13T14:49:25.403Z,9.54
2022-10-13T14:51:52.876Z,9.49
2022-10-13T14:54:20.307Z,9.41
2022-10-13T14:56:47.817Z,9.36
2022-10-13T14:59:15.314Z,9.33
2022-10-13T15:01:43.453Z,9.35
2022-10-13T15:04:11.241Z,9.33
2022-10-13T15:06:39.515Z,9.29
2022-10-13T15:11:41.275Z,9.34
2022-10-13T15:14:09.932Z,9.30
2022-10-13T15:16:38.047Z,9.21
2022-10-13T15:19:05.994Z,9.14
2022-10-13T15:21:33.577Z,9.16
2022-10-13T15:24:01.691Z,9.07
2022-10-13T15:26:29.806Z,9.22
2022-10-13T15:28:57.258Z,9.16
2022-10-13T15:31:24.895Z,9.19
2022-10-13T15:33:53.834Z,9.11
2022-10-13T15:36:23.540Z,9.15
2022-10-13T15:38:51.725Z,9.08
2022-10-13T15:41:19.940Z,9.11
2022-10-13T15:43:48.059Z,9.02
2022-10-13T15:46:21.672Z,9.05
2022-10-13T15:48:51.439Z,8.98
2022-10-13T15:51:21.198Z,8.97
2022-10-13T15:53:49.137Z,8.95
2022-10-13T15:56:16.953Z,8.88
2022-10-13T15:58:45.549Z,8.86
2022-10-13T16:01:14.422Z,8.86
2022-10-13T16:03:42.234Z,8.81
2022-10-13T16:06:12.104Z,8.84
2022-10-13T16:08:41.017Z,8.83
2022-10-13T16:11:13.712Z,8.85
2022-10-13T16:13:41.964Z,8.80
2022-10-13T16:16:09.402Z,8.83
2022-10-13T16:18:38.399Z,8.83
2022-10-13T16:21:28.689Z,8.83
2022-10-13T16:23:56.634Z,8.81
2022-10-13T16:26:24.197Z,8.78
2022-10-13T16:28:55.185Z,8.79
2022-10-13T16:31:24.298Z,8.77
2022-10-13T16:33:51.812Z,8.66
2022-10-13T16:36:20.258Z,8.59
2022-10-13T16:38:54.386Z,8.43
2022-10-13T16:41:22.195Z,8.45
2022-10-13T16:43:50.346Z,8.32
2022-10-13T16:46:20.414Z,8.25
2022-10-13T16:48:48.521Z,8.35
2022-10-13T16:51:19.911Z,8.31
2022-10-13T16:53:49.728Z,8.28
2022-10-13T16:56:22.297Z,8.22
2022-10-13T16:58:55.024Z,8.33
2022-10-13T17:01:23.027Z,8.42
2022-10-13T17:03:51.721Z,8.44
2022-10-13T17:06:24.958Z,8.53
2022-10-13T17:08:57.888Z,8.55
2022-10-13T17:11:28.513Z,8.63
2022-10-13T17:13:58.115Z,8.64
2022-10-13T17:16:25.906Z,8.61
2022-10-13T17:18:54.383Z,8.65
2022-10-13T17:21:22.307Z,8.72
2022-10-13T17:23:50.194Z,8.75
2022-10-13T17:26:19.179Z,8.76
2022-10-13T17:28:47.133Z,8.79
2022-10-13T17:31:17.474Z,8.73
2022-10-13T17:33:46.216Z,8.80
2022-10-13T17:36:28.171Z,8.84
2022-10-13T17:38:56.682Z,8.85
2022-10-13T17:41:24.739Z,8.77
2022-10-13T17:43:52.383Z,8.79
2022-10-13T17:46:39.171Z,8.81
2022-10-13T17:49:09.795Z,8.80
2022-10-13T17:51:37.764Z,8.77
2022-10-13T17:54:05.294Z,8.78
2022-10-13T17:56:33.029Z,8.70
2022-10-13T17:59:02.458Z,8.63
2022-10-13T18:01:32.787Z,8.51
2022-10-13T18:04:04.415Z,8.50
2022-10-13T18:06:38.476Z,8.37
2022-10-13T18:09:18.619Z,8.32
2022-10-13T18:11:50.682Z,8.24
2022-10-13T18:14:20.835Z,8.17
2022-10-13T18:16:51.069Z,8.13
2022-10-13T18:19:18.917Z,7.97
2022-10-13T18:21:46.659Z,7.90
2022-10-13T18:24:14.275Z,7.88
2022-10-13T18:26:41.882Z,7.81
2022-10-13T18:29:11.906Z,7.80
2022-10-13T18:31:41.486Z,7.80
2022-10-13T18:34:14.360Z,7.93
2022-10-13T18:36:47.668Z,7.92
2022-10-13T18:39:18.376Z,8.04
2022-10-13T18:41:50.671Z,8.03
2022-10-13T18:44:19.200Z,8.04
2022-10-13T18:46:50.497Z,8.08
2022-10-13T18:49:20.721Z,8.15
2022-10-13T18:51:50.708Z,8.19
2022-10-13T18:54:18.433Z,8.18
2022-10-13T18:56:45.877Z,8.22
2022-10-13T18:59:13.348Z,8.19
2022-10-13T19:01:44.411Z,8.23
2022-10-13T19:04:12.889Z,8.27
2022-10-13T19:06:41.165Z,8.29
2022-10-13T19:09:12.281Z,8.22
2022-10-13T19:11:39.953Z,8.27
2022-10-13T19:14:10.972Z,8.26
2022-10-13T19:16:41.509Z,8.24
2022-10-13T19:19:09.625Z,8.28
2022-10-13T19:21:38.538Z,8.25
2022-10-13T19:24:07.268Z,8.31
2022-10-13T19:26:36.435Z,8.31
2022-10-13T19:29:08.168Z,8.20
2022-10-13T19:31:37.734Z,8.28
2022-10-13T19:34:08.429Z,8.21
2022-10-13T19:36:41.879Z,8.31
2022-10-13T19:39:14.977Z,8.25
2022-10-13T19:41:43.840Z,8.27
2022-10-13T19:44:11.913Z,8.31
2022-10-13T19:46:41.238Z,8.25
2022-10-13T19:49:09.525Z,8.27
2022-10-13T19:51:41.836Z,8.26
2022-10-13T19:54:11.223Z,8.22
2022-10-13T19:56:39.947Z,8.22
2022-10-13T19:59:08.938Z,8.26
2022-10-13T20:01:41.149Z,8.26
2022-10-13T20:04:15.628Z,8.25
2022-10-13T20:06:44.969Z,8.26
2022-10-13T20:09:13.086Z,8.25
2022-10-13T20:11:40.919Z,8.20
2022-10-13T20:14:08.515Z,8.22
2022-10-13T20:16:37.917Z,8.29
2022-10-13T20:19:06.627Z,8.26
2022-10-13T20:21:34.382Z,8.26
2022-10-13T20:24:01.875Z,8.25
2022-10-13T20:26:29.693Z,8.24
2022-10-13T20:28:58.409Z,8.26
2022-10-13T20:31:26.465Z,8.24
2022-10-13T20:33:58.213Z,8.25
2022-10-13T20:36:35.992Z,8.26
2022-10-13T20:39:06.819Z,8.17
2022-10-13T20:41:34.885Z,8.15
2022-10-13T20:44:03.299Z,8.17
2022-10-13T20:46:34.118Z,8.11
2022-10-13T20:49:16.825Z,8.13
2022-10-13T20:51:44.768Z,8.12
2022-10-13T20:54:13.695Z,8.04
2022-10-13T20:56:41.558Z,8.02
2022-10-13T20:59:12.062Z,8.10
2022-10-13T21:01:39.576Z,8.04
2022-10-13T21:04:07.213Z,8.08
2022-10-13T21:06:35.919Z,8.04
2022-10-13T21:09:37.290Z,8.04
2022-10-13T21:12:16.802Z,8.07
2022-10-13T21:14:47.060Z,7.99
2022-10-13T21:17:14.560Z,8.04
2022-10-13T21:19:41.966Z,8.04
2022-10-13T21:22:09.684Z,7.99
2022-10-13T21:24:37.388Z,8.03
2022-10-13T21:27:04.930Z,8.03
2022-10-13T21:29:32.349Z,8.02
2022-10-13T21:31:59.853Z,8.06
2022-10-13T21:34:27.271Z,8.05
2022-10-13T21:36:54.965Z,8.06
2022-10-13T21:39:22.416Z,7.96
2022-10-13T21:41:49.855Z,7.95
2022-10-13T21:44:17.287Z,7.92
2022-10-13T21:46:45.278Z,7.89
2022-10-13T21:49:12.789Z,7.92
2022-10-13T21:51:40.756Z,7.84
2022-10-13T21:54:11.178Z,7.81
2022-10-13T21:56:39.735Z,7.79
2022-10-13T21:59:08.172Z,7.73
2022-10-13T22:01:35.681Z,7.72
2022-10-13T22:04:12.016Z,7.77
2022-10-13T22:06:39.715Z,7.73
2022-10-13T22:09:07.655Z,7.74
2022-10-13T22:11:37.198Z,7.68
2022-10-13T22:14:11.735Z,7.70
2022-10-13T22:16:47.770Z,7.69
2022-10-13T22:19:16.786Z,7.72
2022-10-13T22:21:46.474Z,7.71
2022-10-13T22:24:19.823Z,7.70
2022-10-13T22:26:48.819Z,7.64
2022-10-13T22:29:19.435Z,7.65
2022-10-13T22:31:48.519Z,7.64
2022-10-13T22:34:17.032Z,7.55
2022-10-13T22:36:45.388Z,7.60
2022-10-13T22:39:13.864Z,7.58
2022-10-13T22:41:41.821Z,7.66
2022-10-13T22:44:09.687Z,7.57
2022-10-13T22:46:38.146Z,7.51
2022-10-13T22:49:07.060Z,7.54
2022-10-13T22:51:36.357Z,7.47
2022-10-13T22:54:04.835Z,7.44
2022-10-13T22:56:34.167Z,7.44
2022-10-13T22:59:05.472Z,7.41
2022-10-13T23:01:33.245Z,7.36
2022-10-13T23:04:01.072Z,7.36
2022-10-13T23:06:31.801Z,7.36
2022-10-13T23:09:09.291Z,7.37
2022-10-13T23:11:37.184Z,7.34
2022-10-13T23:14:06.199Z,7.33
2022-10-13T23:16:33.992Z,7.37
2022-10-13T23:19:01.826Z,7.36
2022-10-13T23:21:30.691Z,7.34
2022-10-13T23:24:01.117Z,7.34
2022-10-13T23:26:29.439Z,7.28
2022-10-13T23:28:58.012Z,7.26
2022-10-13T23:31:27.695Z,7.31
2022-10-13T23:33:55.554Z,7.30
2022-10-13T23:36:25.553Z,7.34
2022-10-13T23:39:02.127Z,7.29
2022-10-13T23:41:30.077Z,7.30
2022-10-13T23:43:57.771Z,7.22
2022-10-13T23:46:25.824Z,7.22
2022-10-13T23:48:53.312Z,7.26
2022-10-13T23:51:23.850Z,7.19
2022-10-13T23:53:52.218Z,7.20
2022-10-13T23:56:20.055Z,7.19
2022-10-13T23:58:48.105Z,7.19
